Portada
METAR-TAF:

METAR-TAF

Aeroports :

Phillip Goldston

Belize City, Belize

latitud: 17-32N, longitud: 088-18W, altitud: 5 m

Observació

L'informe es va fer fa 12 minuts, a les 17:00 UTC
Vent 3 kt del Sud/Sud-Est
Temperatura 26°C
Humitat 94%
Pressió 1015 hPa
Visibilitat 10 km o més
Escasses núvols a una alçada de 800 ft
Núvols disperses a una alçada de 1500 ft
Cel ennuvolat a una alçada de 4000 ft

METAR: MZBZ 231700Z 16003KT 9999 FEW008 SCT015 BKN040 26/25 A2999 Q1015 RESHRA NOSIG DIST SHWRS-SE CB-SW

Hora: 11:12 (17:12 UTC)

Pronòstic

L'informe es va fer fa 6 hores i 12 minuts, a les 11:00 UTC
Pronòstic vàlid del 23 a les 12 UTC al 24 a les 12 UTC
Vent 3 kt amb direcció variable
Visibilitat 10 km o més
Núvols disperses a una alçada de 2000 ft
Evolucionant progressivament
l' 23 a les 15 UTC al 23 a les 17 UTC
Vent 8 kt del Est/Nord-Est

TAF: MZBZ 231100Z 2312/2412 VRB03KT 9999 SCT020 BECMG 2315/2317 07008KT

Observacions i pronòstics meteorològics de més de 4000 aeroports (METAR i TAF).

Les estacions disponibles són els punts grocs i vermells al mapa.

Posi el ratolí al punt desitjat per veure el nom de l'estació.

Feu clic per veure les observacions i els pronòstics meteorològics.

Per canviar el mapa: feu clic els botons verds amb una creu de color negre per apropar; al botó verd amb un guió per allunyar la imatge; o en les fletxes verdes per a mapes adjacents.


METAR-TAF: